Time;durP1;ratioP1;P1;durP2;ratioP2;P2;SDS_P1;SDS_P2;PMS_P1;PMS_P2;Temp;Humidity;BMP_temperature;BMP_pressure;BME280_temperature;BME280_humidity;BME280_pressure;Samples;Min_cycle;Max_cycle;Signal;HPM_P1;HPM_P2
2023/05/06 00:01:15;;;;;;;2.05;0.45;;;;;;;;;;4906768;29;20076;-83
2023/05/06 00:03:44;;;;;;;0.20;0.10;;;;;;;;;;4909801;29;20152;-83
2023/05/06 00:06:10;;;;;;;0.20;0.10;;;;;;;;;;4909743;29;20422;-83
2023/05/06 00:08:36;;;;;;;0.20;0.10;;;;;;;;;;4909731;29;20048;-83
2023/05/06 00:11:02;;;;;;;0.20;0.10;;;;;;;;;;4911065;29;20044;-82
2023/05/06 00:13:29;;;;;;;0.20;0.10;;;;;;;;;;4909766;29;20036;-83
2023/05/06 00:15:55;;;;;;;0.20;0.15;;;;;;;;;;4909799;29;20043;-82
2023/05/06 00:18:22;;;;;;;0.20;0.10;;;;;;;;;;4894921;29;20051;-83
2023/05/06 00:20:51;;;;;;;0.20;0.10;;;;;;;;;;4896165;29;20668;-82
2023/05/06 00:23:20;;;;;;;0.20;0.10;;;;;;;;;;4926658;29;20119;-83
2023/05/06 00:25:48;;;;;;;0.20;0.10;;;;;;;;;;4908349;29;20134;-83
2023/05/06 00:28:17;;;;;;;0.20;0.10;;;;;;;;;;4924432;29;20299;-83
2023/05/06 00:30:46;;;;;;;0.20;0.10;;;;;;;;;;4910660;29;20123;-83
2023/05/06 00:33:15;;;;;;;0.20;0.10;;;;;;;;;;4904661;29;20316;-82
2023/05/06 00:35:42;;;;;;;0.20;0.10;;;;;;;;;;4883444;29;20075;-83
2023/05/06 00:38:24;;;;;;;0.20;0.10;;;;;;;;;;4899171;29;20162;-84
2023/05/06 00:40:59;;;;;;;0.20;0.10;;;;;;;;;;4904119;29;20047;-84
2023/05/06 00:43:27;;;;;;;0.20;0.05;;;;;;;;;;4891712;29;20055;-83
2023/05/06 00:45:53;;;;;;;0.43;0.40;;;;;;;;;;4891024;29;20043;-85
2023/05/06 00:48:20;;;;;;;0.38;0.30;;;;;;;;;;4890246;29;20709;-83
2023/05/06 00:50:49;;;;;;;0.20;0.10;;;;;;;;;;4895538;29;20070;-83
2023/05/06 00:53:18;;;;;;;0.20;0.10;;;;;;;;;;4911084;29;20510;-83
2023/05/06 00:55:47;;;;;;;0.20;0.10;;;;;;;;;;4896354;29;20146;-83
2023/05/06 00:58:14;;;;;;;0.20;0.10;;;;;;;;;;4896901;29;20047;-83
2023/05/06 01:00:41;;;;;;;0.20;0.10;;;;;;;;;;4896100;29;20071;-83
2023/05/06 01:03:12;;;;;;;0.20;0.10;;;;;;;;;;4899384;29;20040;-83
2023/05/06 01:06:02;;;;;;;0.20;0.10;;;;;;;;;;4905144;29;20048;-83
2023/05/06 01:08:39;;;;;;;0.20;0.10;;;;;;;;;;4878865;29;20052;-83
2023/05/06 01:11:09;;;;;;;0.40;0.20;;;;;;;;;;4902138;29;20138;-83
2023/05/06 01:13:41;;;;;;;0.20;0.10;;;;;;;;;;4904963;29;20055;-83
2023/05/06 01:16:08;;;;;;;0.85;0.35;;;;;;;;;;4888295;29;20091;-83
2023/05/06 01:18:38;;;;;;;0.20;0.10;;;;;;;;;;4887266;29;20054;-84
2023/05/06 01:21:04;;;;;;;0.47;0.30;;;;;;;;;;4905628;29;20051;-84
2023/05/06 01:23:50;;;;;;;0.20;0.10;;;;;;;;;;4920875;29;20456;-83
2023/05/06 01:26:16;;;;;;;0.20;0.10;;;;;;;;;;4923901;29;20048;-83
2023/05/06 01:28:45;;;;;;;0.20;0.20;;;;;;;;;;4906540;29;20463;-84
2023/05/06 01:31:12;;;;;;;0.20;0.10;;;;;;;;;;4902627;29;20127;-83
2023/05/06 01:33:41;;;;;;;0.35;0.30;;;;;;;;;;4908752;29;20455;-84
2023/05/06 01:36:18;;;;;;;0.20;0.13;;;;;;;;;;4922053;29;20051;-83
2023/05/06 01:38:47;;;;;;;0.35;0.30;;;;;;;;;;4891815;29;20064;-84
2023/05/06 01:41:15;;;;;;;0.20;0.10;;;;;;;;;;4890065;29;20055;-84
2023/05/06 01:43:42;;;;;;;0.20;0.10;;;;;;;;;;4891629;29;20557;-84
2023/05/06 01:46:11;;;;;;;0.20;0.20;;;;;;;;;;4907453;29;20586;-84
2023/05/06 01:48:37;;;;;;;0.47;0.22;;;;;;;;;;4905068;29;20040;-84
2023/05/06 01:51:03;;;;;;;0.20;0.10;;;;;;;;;;4907532;29;20503;-84
2023/05/06 01:53:29;;;;;;;0.20;0.05;;;;;;;;;;4908586;29;20451;-83
2023/05/06 01:55:56;;;;;;;0.32;0.25;;;;;;;;;;4906791;29;20047;-83
2023/05/06 01:58:22;;;;;;;0.20;0.15;;;;;;;;;;4914655;29;20086;-84
2023/05/06 02:00:48;;;;;;;0.20;0.17;;;;;;;;;;4914934;29;20040;-84
2023/05/06 02:03:14;;;;;;;0.20;0.10;;;;;;;;;;4900151;29;20091;-83
2023/05/06 02:05:40;;;;;;;0.20;0.13;;;;;;;;;;4898618;29;20047;-83
2023/05/06 02:08:09;;;;;;;0.20;0.10;;;;;;;;;;4902385;29;20040;-83
2023/05/06 02:10:35;;;;;;;0.20;0.10;;;;;;;;;;4904386;29;20060;-83
2023/05/06 02:13:01;;;;;;;0.20;0.10;;;;;;;;;;4900421;29;20044;-84
2023/05/06 02:15:27;;;;;;;0.20;0.10;;;;;;;;;;4902186;29;20043;-84
2023/05/06 02:17:53;;;;;;;0.20;0.10;;;;;;;;;;4898886;29;20051;-84
2023/05/06 02:20:19;;;;;;;0.20;0.10;;;;;;;;;;4899707;29;20059;-84
2023/05/06 02:22:45;;;;;;;0.20;0.10;;;;;;;;;;4914097;29;20749;-84
2023/05/06 02:25:11;;;;;;;0.45;0.15;;;;;;;;;;4904181;29;20067;-85
2023/05/06 02:27:37;;;;;;;0.20;0.10;;;;;;;;;;4906725;29;20177;-85
2023/05/06 02:30:05;;;;;;;0.20;0.17;;;;;;;;;;4901974;29;20059;-83
2023/05/06 02:32:31;;;;;;;0.20;0.10;;;;;;;;;;4918253;29;20047;-84
2023/05/06 02:34:57;;;;;;;0.28;0.28;;;;;;;;;;4901015;29;20044;-84
2023/05/06 02:37:23;;;;;;;0.20;0.10;;;;;;;;;;4899705;29;20132;-84
2023/05/06 02:39:49;;;;;;;0.20;0.13;;;;;;;;;;4916797;29;20168;-83
2023/05/06 02:42:15;;;;;;;0.20;0.10;;;;;;;;;;4907140;29;20115;-84
2023/05/06 02:44:41;;;;;;;0.75;0.57;;;;;;;;;;4891301;29;20075;-84
2023/05/06 02:47:07;;;;;;;0.20;0.10;;;;;;;;;;4907133;29;20533;-84
2023/05/06 02:49:33;;;;;;;0.30;0.25;;;;;;;;;;4905626;29;20043;-83
2023/05/06 02:52:00;;;;;;;0.20;0.10;;;;;;;;;;4916908;29;20491;-84
2023/05/06 02:54:26;;;;;;;0.28;0.28;;;;;;;;;;4887052;29;20091;-83
2023/05/06 02:56:52;;;;;;;0.22;0.03;;;;;;;;;;4903263;29;20040;-85
2023/05/06 02:59:18;;;;;;;0.20;0.10;;;;;;;;;;4901771;29;20527;-84
2023/05/06 03:01:44;;;;;;;0.20;0.10;;;;;;;;;;4882317;29;22939;-84
2023/05/06 03:04:10;;;;;;;0.20;0.10;;;;;;;;;;4904480;29;20044;-85
2023/05/06 03:06:36;;;;;;;0.30;0.20;;;;;;;;;;4900688;29;20095;-84
2023/05/06 03:09:03;;;;;;;0.20;0.10;;;;;;;;;;4902079;29;20044;-84
2023/05/06 03:11:30;;;;;;;0.20;0.20;;;;;;;;;;4902603;29;20495;-84
2023/05/06 03:13:57;;;;;;;0.20;0.00;;;;;;;;;;4916099;29;20361;-84
2023/05/06 03:16:31;;;;;;;0.20;0.13;;;;;;;;;;4903516;29;20043;-83
2023/05/06 03:18:57;;;;;;;0.25;0.10;;;;;;;;;;4904129;29;20581;-83
2023/05/06 03:21:23;;;;;;;0.20;0.03;;;;;;;;;;4889686;29;20044;-84
2023/05/06 03:23:49;;;;;;;0.30;0.20;;;;;;;;;;4887808;29;20036;-84
2023/05/06 03:26:15;;;;;;;0.20;0.20;;;;;;;;;;4902384;29;20071;-84
2023/05/06 03:28:45;;;;;;;0.38;0.20;;;;;;;;;;4886819;29;20304;-84
2023/05/06 03:31:11;;;;;;;0.20;0.10;;;;;;;;;;4886818;29;20032;-83
2023/05/06 03:33:38;;;;;;;0.55;0.40;;;;;;;;;;4884403;29;20040;-83
2023/05/06 03:36:04;;;;;;;0.20;0.10;;;;;;;;;;4901457;29;20044;-84
2023/05/06 03:38:30;;;;;;;0.20;0.10;;;;;;;;;;4903116;29;20081;-84
2023/05/06 03:40:56;;;;;;;0.20;0.10;;;;;;;;;;4885691;29;20503;-85
2023/05/06 03:43:22;;;;;;;0.20;0.20;;;;;;;;;;4898870;29;20046;-84
2023/05/06 03:45:48;;;;;;;0.20;0.10;;;;;;;;;;4915264;29;20044;-84
2023/05/06 03:48:14;;;;;;;0.20;0.10;;;;;;;;;;4896831;29;20032;-84
2023/05/06 03:50:41;;;;;;;0.20;0.10;;;;;;;;;;4887636;29;20055;-83
2023/05/06 03:53:07;;;;;;;0.20;0.10;;;;;;;;;;4888899;29;20502;-84
2023/05/06 03:55:33;;;;;;;0.20;0.10;;;;;;;;;;4906409;29;20609;-83
2023/05/06 03:58:00;;;;;;;0.20;0.10;;;;;;;;;;4905581;29;20067;-84
2023/05/06 04:00:26;;;;;;;1.13;0.40;;;;;;;;;;4911058;29;20510;-84
2023/05/06 04:02:52;;;;;;;0.20;0.10;;;;;;;;;;4907472;29;20106;-84
2023/05/06 04:05:18;;;;;;;0.40;0.30;;;;;;;;;;4906386;29;20123;-83
2023/05/06 04:07:44;;;;;;;0.20;0.10;;;;;;;;;;4907704;29;20047;-83
2023/05/06 04:10:10;;;;;;;0.20;0.10;;;;;;;;;;4906188;29;20040;-83
2023/05/06 04:12:36;;;;;;;0.20;0.10;;;;;;;;;;4907111;29;20043;-83
2023/05/06 04:15:02;;;;;;;0.20;0.10;;;;;;;;;;4926624;29;20040;-83
2023/05/06 04:17:29;;;;;;;0.20;0.10;;;;;;;;;;4910779;29;20048;-83
2023/05/06 04:19:55;;;;;;;0.20;0.10;;;;;;;;;;4890855;29;20400;-83
2023/05/06 04:22:21;;;;;;;0.20;0.10;;;;;;;;;;4910699;29;20175;-83
2023/05/06 04:24:47;;;;;;;0.28;0.17;;;;;;;;;;4911353;29;20526;-83
2023/05/06 04:27:13;;;;;;;0.28;0.22;;;;;;;;;;4903051;29;20459;-83
2023/05/06 04:29:39;;;;;;;0.20;0.10;;;;;;;;;;4906385;29;20659;-83
2023/05/06 04:32:06;;;;;;;0.20;0.10;;;;;;;;;;4905529;29;20095;-83
2023/05/06 04:34:35;;;;;;;0.20;0.10;;;;;;;;;;4924290;29;20176;-83
2023/05/06 04:37:01;;;;;;;0.20;0.03;;;;;;;;;;4921485;29;20047;-83
2023/05/06 04:39:27;;;;;;;0.32;0.20;;;;;;;;;;4905443;29;20134;-83
2023/05/06 04:41:53;;;;;;;0.20;0.10;;;;;;;;;;4906957;29;20511;-83
2023/05/06 04:44:19;;;;;;;0.20;0.10;;;;;;;;;;4902798;29;20095;-83
2023/05/06 04:46:46;;;;;;;0.20;0.10;;;;;;;;;;4889003;29;20047;-83
2023/05/06 04:49:12;;;;;;;0.20;0.10;;;;;;;;;;4907742;29;20040;-83
2023/05/06 04:51:38;;;;;;;0.20;0.10;;;;;;;;;;4886346;29;20051;-83
2023/05/06 04:54:04;;;;;;;0.40;0.25;;;;;;;;;;4918442;29;21125;-83
2023/05/06 04:56:29;;;;;;;0.20;0.10;;;;;;;;;;4902775;29;20194;-83
2023/05/06 04:58:55;;;;;;;0.20;0.10;;;;;;;;;;4923332;29;20051;-83
2023/05/06 05:01:21;;;;;;;0.20;0.10;;;;;;;;;;4903683;29;20265;-83
2023/05/06 05:03:48;;;;;;;0.25;0.17;;;;;;;;;;4905137;29;20258;-82
2023/05/06 05:06:14;;;;;;;0.30;0.30;;;;;;;;;;4905095;29;20055;-82
2023/05/06 05:08:40;;;;;;;0.20;0.10;;;;;;;;;;4903315;29;20399;-84
2023/05/06 05:11:06;;;;;;;0.20;0.10;;;;;;;;;;4905382;29;20036;-83
2023/05/06 05:13:33;;;;;;;0.38;0.28;;;;;;;;;;4903813;29;20040;-83
2023/05/06 05:15:59;;;;;;;0.20;0.10;;;;;;;;;;4914766;29;20087;-83
2023/05/06 05:18:27;;;;;;;0.30;0.20;;;;;;;;;;4906541;29;20346;-83
2023/05/06 05:20:53;;;;;;;0.20;0.10;;;;;;;;;;4884579;29;20055;-83
2023/05/06 05:23:20;;;;;;;0.20;0.10;;;;;;;;;;4900351;29;20044;-83
2023/05/06 05:25:46;;;;;;;0.20;0.10;;;;;;;;;;4910378;29;20521;-84
2023/05/06 05:28:12;;;;;;;0.25;0.10;;;;;;;;;;4884937;29;20040;-84
2023/05/06 05:30:38;;;;;;;0.20;0.10;;;;;;;;;;4904194;29;20115;-83
2023/05/06 05:33:04;;;;;;;0.32;0.20;;;;;;;;;;4898390;29;20399;-84
2023/05/06 05:35:30;;;;;;;0.20;0.10;;;;;;;;;;4898817;29;20052;-83
2023/05/06 05:37:56;;;;;;;0.20;0.00;;;;;;;;;;4891307;29;20044;-83
2023/05/06 05:40:22;;;;;;;0.20;0.10;;;;;;;;;;4900611;29;20052;-83
2023/05/06 05:42:48;;;;;;;0.20;0.10;;;;;;;;;;4900363;29;20048;-83
2023/05/06 05:45:14;;;;;;;0.20;0.10;;;;;;;;;;4891039;29;20103;-83
2023/05/06 05:47:40;;;;;;;0.20;0.10;;;;;;;;;;4903002;29;20059;-83
2023/05/06 05:50:06;;;;;;;0.35;0.30;;;;;;;;;;4889691;29;20051;-83
2023/05/06 05:52:32;;;;;;;0.20;0.10;;;;;;;;;;4889737;29;20459;-84
2023/05/06 05:54:58;;;;;;;0.20;0.10;;;;;;;;;;4913086;29;20044;-83
2023/05/06 05:57:24;;;;;;;0.38;0.10;;;;;;;;;;4910847;29;20071;-83
2023/05/06 05:59:50;;;;;;;0.20;0.10;;;;;;;;;;4903785;29;20031;-83
2023/05/06 06:02:16;;;;;;;0.20;0.05;;;;;;;;;;4896102;29;20093;-83
2023/05/06 06:04:50;;;;;;;0.20;0.10;;;;;;;;;;4911247;23;20055;-87
2023/05/06 06:07:19;;;;;;;0.20;0.10;;;;;;;;;;4933124;28;20043;-88
2023/05/06 06:09:45;;;;;;;0.30;0.10;;;;;;;;;;4923092;28;20123;-87
2023/05/06 06:12:12;;;;;;;0.20;0.20;;;;;;;;;;4880128;29;20548;-86
2023/05/06 06:14:38;;;;;;;0.20;0.10;;;;;;;;;;4908680;29;20178;-87
2023/05/06 06:17:05;;;;;;;0.30;0.30;;;;;;;;;;4909104;29;20605;-86
2023/05/06 06:19:33;;;;;;;0.50;0.47;;;;;;;;;;4915537;29;20146;-86
2023/05/06 06:22:02;;;;;;;0.40;0.15;;;;;;;;;;4920207;29;20059;-84
2023/05/06 06:24:34;;;;;;;0.20;0.10;;;;;;;;;;4906521;29;20118;-85
2023/05/06 06:27:06;;;;;;;0.20;0.10;;;;;;;;;;4908958;29;20046;-87
2023/05/06 06:29:32;;;;;;;0.20;0.10;;;;;;;;;;4909961;29;20842;-87
2023/05/06 06:32:02;;;;;;;0.20;0.10;;;;;;;;;;4911021;29;20095;-88
2023/05/06 06:34:28;;;;;;;0.20;0.10;;;;;;;;;;4912992;29;20102;-87
2023/05/06 06:36:55;;;;;;;0.20;0.10;;;;;;;;;;4911758;29;20094;-87
2023/05/06 06:39:23;;;;;;;0.20;0.10;;;;;;;;;;4911451;29;20066;-87
2023/05/06 06:41:58;;;;;;;0.20;0.10;;;;;;;;;;4915406;29;20560;-86
2023/05/06 06:44:24;;;;;;;0.20;0.10;;;;;;;;;;4911535;29;20166;-87
2023/05/06 06:46:51;;;;;;;0.40;0.15;;;;;;;;;;4907364;28;20502;-85
2023/05/06 06:49:17;;;;;;;0.20;0.10;;;;;;;;;;4914840;29;20479;-86
2023/05/06 06:51:43;;;;;;;0.20;0.10;;;;;;;;;;4913926;29;20187;-87
2023/05/06 06:54:09;;;;;;;0.20;0.10;;;;;;;;;;4916024;29;20740;-87
2023/05/06 06:56:35;;;;;;;0.20;0.10;;;;;;;;;;4908755;29;20554;-87
2023/05/06 06:59:01;;;;;;;0.20;0.00;;;;;;;;;;4917512;29;20466;-87
2023/05/06 07:01:27;;;;;;;0.20;0.00;;;;;;;;;;4914349;29;20446;-87
2023/05/06 07:03:55;;;;;;;0.20;0.10;;;;;;;;;;4914257;29;20051;-87
2023/05/06 07:06:21;;;;;;;0.20;0.17;;;;;;;;;;4918625;29;20072;-86
2023/05/06 07:08:48;;;;;;;0.20;0.10;;;;;;;;;;4923261;29;20154;-87
2023/05/06 07:11:14;;;;;;;0.20;0.10;;;;;;;;;;4919299;29;20143;-86
2023/05/06 07:13:40;;;;;;;0.20;0.10;;;;;;;;;;4918826;28;20399;-87
2023/05/06 07:16:06;;;;;;;0.20;0.10;;;;;;;;;;4924915;29;20337;-87
2023/05/06 07:18:32;;;;;;;0.20;0.10;;;;;;;;;;4908893;29;20058;-86
2023/05/06 07:20:58;;;;;;;0.20;0.10;;;;;;;;;;4916676;29;20042;-86
2023/05/06 07:23:24;;;;;;;0.20;0.10;;;;;;;;;;4917883;29;20514;-87
2023/05/06 07:25:51;;;;;;;0.20;0.10;;;;;;;;;;4922451;29;20062;-87
2023/05/06 07:28:17;;;;;;;0.20;0.10;;;;;;;;;;4917746;29;20071;-86
2023/05/06 07:30:43;;;;;;;0.20;0.13;;;;;;;;;;4895623;29;20066;-88
2023/05/06 07:33:09;;;;;;;0.20;0.17;;;;;;;;;;4898514;29;20095;-87
2023/05/06 07:35:36;;;;;;;0.20;0.10;;;;;;;;;;4900764;29;20043;-87
2023/05/06 07:38:02;;;;;;;0.20;0.10;;;;;;;;;;4926415;29;20043;-87
2023/05/06 07:40:28;;;;;;;0.20;0.10;;;;;;;;;;4923289;29;20102;-88
2023/05/06 07:42:54;;;;;;;0.43;0.17;;;;;;;;;;4874645;28;20065;-88
2023/05/06 07:45:24;;;;;;;0.20;0.10;;;;;;;;;;4912834;29;20045;-88
2023/05/06 07:47:50;;;;;;;0.20;0.10;;;;;;;;;;4916478;29;20054;-88
2023/05/06 07:50:16;;;;;;;0.20;0.10;;;;;;;;;;4924626;29;20036;-89
2023/05/06 07:52:42;;;;;;;0.20;0.17;;;;;;;;;;4924950;29;20044;-88
2023/05/06 07:55:09;;;;;;;0.20;0.13;;;;;;;;;;4922196;29;20172;-88
2023/05/06 07:57:35;;;;;;;0.40;0.20;;;;;;;;;;4930765;29;20091;-89
2023/05/06 08:00:01;;;;;;;0.20;0.10;;;;;;;;;;4926784;29;20125;-88
2023/05/06 08:02:28;;;;;;;0.20;0.10;;;;;;;;;;4934372;28;20499;-89
2023/05/06 08:04:55;;;;;;;0.38;0.35;;;;;;;;;;4930387;28;20054;-88
2023/05/06 08:07:23;;;;;;;0.20;0.10;;;;;;;;;;4942426;28;20063;-88
2023/05/06 08:09:52;;;;;;;0.20;0.10;;;;;;;;;;4910928;29;20054;-88
2023/05/06 08:12:18;;;;;;;0.20;0.10;;;;;;;;;;4919171;29;20039;-89
2023/05/06 08:14:44;;;;;;;0.20;0.10;;;;;;;;;;4924488;29;20127;-88
2023/05/06 08:17:10;;;;;;;0.20;0.10;;;;;;;;;;4923223;29;20039;-88
2023/05/06 08:19:36;;;;;;;0.20;0.20;;;;;;;;;;4936114;28;20048;-88
2023/05/06 08:22:02;;;;;;;0.35;0.20;;;;;;;;;;4922095;29;20495;-89
2023/05/06 08:24:29;;;;;;;0.20;0.00;;;;;;;;;;4922890;29;20454;-89
2023/05/06 08:26:55;;;;;;;0.30;0.30;;;;;;;;;;4930496;29;20058;-90
2023/05/06 08:29:21;;;;;;;0.20;0.10;;;;;;;;;;4924670;29;20068;-88
2023/05/06 08:31:47;;;;;;;0.20;0.10;;;;;;;;;;4932472;29;20447;-91
2023/05/06 08:34:13;;;;;;;0.43;0.40;;;;;;;;;;4923544;28;20043;-89
2023/05/06 08:36:39;;;;;;;0.20;0.10;;;;;;;;;;4942689;28;20518;-88
2023/05/06 08:39:08;;;;;;;0.20;0.13;;;;;;;;;;4911314;29;20074;-91
2023/05/06 08:41:36;;;;;;;0.20;0.10;;;;;;;;;;4924350;29;20068;-90
2023/05/06 08:44:03;;;;;;;0.40;0.28;;;;;;;;;;4929029;29;20043;-90
2023/05/06 08:46:29;;;;;;;0.20;0.10;;;;;;;;;;4928319;29;20106;-91
2023/05/06 08:48:58;;;;;;;0.30;0.30;;;;;;;;;;4923805;29;20133;-91
2023/05/06 08:51:34;;;;;;;0.20;0.10;;;;;;;;;;4923576;29;20131;-91
2023/05/06 08:54:07;;;;;;;0.20;0.10;;;;;;;;;;4897149;29;20114;-90
2023/05/06 08:57:02;;;;;;;0.20;0.10;;;;;;;;;;4933795;28;20040;-90
2023/05/06 08:59:37;;;;;;;0.20;0.10;;;;;;;;;;4924075;29;20537;-93
2023/05/06 11:25:51;;;;;;;;;;;;;;;;;;;;;
2023/05/06 11:28:28;;;;;;;0.20;0.10;;;;;;;;;;4981946;28;20050;-86
2023/05/06 11:37:43;;;;;;;0.22;0.20;;;;;;;;;;4946155;28;20165;-85
2023/05/06 11:40:50;;;;;;;0.20;0.17;;;;;;;;;;4906232;28;20047;-84
2023/05/06 11:43:53;;;;;;;;;;;;;;;;;;;;;
2023/05/06 11:46:35;;;;;;;0.30;0.20;;;;;;;;;;4925579;29;20051;-85
2023/05/06 11:49:30;;;;;;;0.20;0.13;;;;;;;;;;4921715;29;20465;-83
2023/05/06 11:55:16;;;;;;;0.90;0.43;;;;;;;;;;4831713;29;20397;-86
2023/05/06 11:58:01;;;;;;;0.30;0.30;;;;;;;;;;4820637;29;20121;-83
2023/05/06 12:03:44;;;;;;;0.20;0.10;;;;;;;;;;4927346;23;20544;-86
2023/05/06 12:06:11;;;;;;;0.20;0.10;;;;;;;;;;4962646;28;20466;-86
2023/05/06 12:09:13;;;;;;;0.20;0.10;;;;;;;;;;4962008;28;20094;-87
2023/05/06 12:11:39;;;;;;;0.28;0.20;;;;;;;;;;4909859;29;20051;-84
2023/05/06 12:14:10;;;;;;;0.20;0.17;;;;;;;;;;4930000;28;20051;-86
2023/05/06 12:16:57;;;;;;;;;;;;;;;;;;4909308;29;20090;-88
2023/05/06 12:19:23;;;;;;;0.20;0.10;;;;;;;;;;4906772;29;19953;-85
2023/05/06 12:21:50;;;;;;;0.20;0.10;;;;;;;;;;4908652;29;20043;-85
2023/05/06 12:24:25;;;;;;;0.20;0.20;;;;;;;;;;4925640;29;20055;-85
2023/05/06 12:26:51;;;;;;;0.63;0.30;;;;;;;;;;4927104;29;20194;-85
2023/05/06 12:29:18;;;;;;;0.20;0.20;;;;;;;;;;4923829;29;20040;-86
2023/05/06 12:31:48;;;;;;;0.20;0.10;;;;;;;;;;4938772;28;20162;-85
2023/05/06 12:34:17;;;;;;;0.30;0.30;;;;;;;;;;4906414;29;20039;-84
2023/05/06 12:36:44;;;;;;;0.28;0.10;;;;;;;;;;4942405;28;20043;-85
2023/05/06 12:39:13;;;;;;;0.20;0.20;;;;;;;;;;4924236;29;20042;-86
2023/05/06 12:41:45;;;;;;;1.42;0.38;;;;;;;;;;4938379;28;20070;-86
2023/05/06 12:44:34;;;;;;;0.38;0.15;;;;;;;;;;4912627;29;20422;-85
2023/05/06 12:47:04;;;;;;;1.45;0.20;;;;;;;;;;4925565;28;20487;-85
2023/05/06 12:50:03;;;;;;;0.40;0.25;;;;;;;;;;4905570;29;20051;-85
2023/05/06 12:52:29;;;;;;;0.20;0.20;;;;;;;;;;4925399;29;20043;-84
2023/05/06 12:54:56;;;;;;;0.52;0.40;;;;;;;;;;4906777;29;20036;-86
2023/05/06 12:57:25;;;;;;;0.20;0.20;;;;;;;;;;4921868;29;20425;-87
2023/05/06 12:59:51;;;;;;;0.50;0.20;;;;;;;;;;4904695;29;20055;-85
2023/05/06 13:02:22;;;;;;;0.43;0.40;;;;;;;;;;4921341;29;20447;-85
2023/05/06 13:04:48;;;;;;;0.30;0.22;;;;;;;;;;4908438;29;20047;-83
2023/05/06 13:07:15;;;;;;;0.20;0.10;;;;;;;;;;4938362;28;20190;-85
2023/05/06 13:09:44;;;;;;;0.90;0.30;;;;;;;;;;4906483;29;20569;-85
2023/05/06 13:12:12;;;;;;;0.22;0.22;;;;;;;;;;4898620;29;20074;-85
2023/05/06 13:14:38;;;;;;;0.20;0.20;;;;;;;;;;4906429;29;20180;-85
2023/05/06 13:17:05;;;;;;;0.25;0.15;;;;;;;;;;4906223;29;20047;-85
2023/05/06 13:19:31;;;;;;;0.57;0.52;;;;;;;;;;4925635;29;20919;-85
2023/05/06 13:22:00;;;;;;;0.20;0.10;;;;;;;;;;4914854;29;20046;-85
2023/05/06 13:24:26;;;;;;;0.43;0.43;;;;;;;;;;4911708;29;20059;-82
2023/05/06 13:26:52;;;;;;;0.45;0.30;;;;;;;;;;4948124;29;20040;-80
2023/05/06 13:29:18;;;;;;;0.20;0.10;;;;;;;;;;4946892;28;20083;-81
2023/05/06 13:31:44;;;;;;;0.40;0.28;;;;;;;;;;4951236;28;20039;-82
2023/05/06 13:41:58;;;;;;;0.20;0.10;;;;;;;;;;4131609;26;20043;-82
2023/05/06 13:44:27;;;;;;;0.30;0.30;;;;;;;;;;4947675;28;20465;-82
2023/05/06 13:46:53;;;;;;;0.43;0.30;;;;;;;;;;4947857;28;20038;-84
2023/05/06 13:49:25;;;;;;;0.20;0.20;;;;;;;;;;4944346;28;20058;-84
2023/05/06 13:52:38;;;;;;;0.20;0.20;;;;;;;;;;4963691;28;20505;-82
2023/05/06 13:55:35;;;;;;;0.40;0.40;;;;;;;;;;4964673;28;20086;-81
2023/05/06 13:58:07;;;;;;;0.20;0.03;;;;;;;;;;4970637;28;20035;-83
2023/05/06 14:00:39;;;;;;;0.20;0.10;;;;;;;;;;4988719;28;20047;-83
2023/05/06 14:03:05;;;;;;;0.30;0.30;;;;;;;;;;4959222;28;20035;-81
2023/05/06 14:05:45;;;;;;;0.25;0.20;;;;;;;;;;4960484;28;20047;-83
2023/05/06 14:08:11;;;;;;;0.32;0.20;;;;;;;;;;4952242;28;20043;-80
2023/05/06 14:10:37;;;;;;;0.20;0.20;;;;;;;;;;4984298;28;20118;-81
2023/05/06 14:13:06;;;;;;;0.20;0.10;;;;;;;;;;4963823;28;20047;-83
2023/05/06 14:15:41;;;;;;;0.30;0.20;;;;;;;;;;4957673;28;20125;-82
2023/05/06 14:18:10;;;;;;;0.20;0.17;;;;;;;;;;4987357;28;20039;-83
2023/05/06 14:20:36;;;;;;;0.20;0.20;;;;;;;;;;4963270;28;20055;-80
2023/05/06 14:23:05;;;;;;;0.30;0.20;;;;;;;;;;4966168;28;20051;-82
2023/05/06 14:25:31;;;;;;;0.30;0.20;;;;;;;;;;4955644;28;20995;-82
2023/05/06 14:27:57;;;;;;;0.20;0.10;;;;;;;;;;4961330;28;20049;-82
2023/05/06 14:30:33;;;;;;;0.22;0.10;;;;;;;;;;4951493;28;20046;-86
2023/05/06 14:33:02;;;;;;;0.20;0.20;;;;;;;;;;4954989;28;20034;-82
2023/05/06 14:35:28;;;;;;;0.25;0.25;;;;;;;;;;4935388;28;20157;-83
2023/05/06 14:37:54;;;;;;;0.30;0.25;;;;;;;;;;4968179;28;20034;-84
2023/05/06 14:40:20;;;;;;;0.22;0.22;;;;;;;;;;4953885;28;20161;-82
2023/05/06 14:42:46;;;;;;;0.28;0.28;;;;;;;;;;4953710;28;20190;-84
2023/05/06 14:45:14;;;;;;;0.30;0.20;;;;;;;;;;4944260;28;20035;-83
2023/05/06 14:47:40;;;;;;;0.25;0.20;;;;;;;;;;4952018;28;20050;-82
2023/05/06 14:50:15;;;;;;;0.20;0.10;;;;;;;;;;4939614;28;20101;-83
2023/05/06 14:52:41;;;;;;;0.25;0.20;;;;;;;;;;4971802;28;20070;-81
2023/05/06 14:55:09;;;;;;;0.20;0.10;;;;;;;;;;4958599;28;20041;-84
2023/05/06 14:57:35;;;;;;;0.60;0.28;;;;;;;;;;4952276;28;20046;-86
2023/05/06 15:00:03;;;;;;;0.57;0.45;;;;;;;;;;4944647;28;20043;-83
2023/05/06 15:02:29;;;;;;;0.22;0.13;;;;;;;;;;4937449;28;20043;-85
2023/05/06 15:04:55;;;;;;;0.20;0.10;;;;;;;;;;4937841;28;20053;-84
2023/05/06 15:07:21;;;;;;;0.25;0.20;;;;;;;;;;4943194;28;20528;-85
2023/05/06 15:09:47;;;;;;;0.28;0.25;;;;;;;;;;4971300;28;20400;-83
2023/05/06 15:12:13;;;;;;;0.20;0.10;;;;;;;;;;4949631;28;20047;-84
2023/05/06 15:14:39;;;;;;;0.30;0.30;;;;;;;;;;4949874;28;20042;-83
2023/05/06 15:17:05;;;;;;;0.30;0.15;;;;;;;;;;4967774;28;20357;-84
2023/05/06 15:19:32;;;;;;;0.20;0.10;;;;;;;;;;4952607;28;20039;-84
2023/05/06 15:22:02;;;;;;;0.20;0.10;;;;;;;;;;4952715;28;20561;-86
2023/05/06 15:24:32;;;;;;;0.35;0.15;;;;;;;;;;4949740;28;20074;-85
2023/05/06 15:27:07;;;;;;;0.40;0.20;;;;;;;;;;4957214;28;20642;-83
2023/05/06 15:29:56;;;;;;;0.20;0.17;;;;;;;;;;4954318;28;20043;-84
2023/05/06 15:32:25;;;;;;;0.20;0.10;;;;;;;;;;4942401;28;20466;-84
2023/05/06 15:34:51;;;;;;;0.20;0.10;;;;;;;;;;4941507;28;20098;-85
2023/05/06 15:37:21;;;;;;;0.25;0.20;;;;;;;;;;4938610;28;20409;-84
2023/05/06 15:39:47;;;;;;;0.30;0.20;;;;;;;;;;4972492;28;20046;-85
2023/05/06 15:42:13;;;;;;;0.20;0.10;;;;;;;;;;4941270;28;20170;-83
2023/05/06 15:44:50;;;;;;;0.22;0.20;;;;;;;;;;4953394;28;20046;-84
2023/05/06 15:47:20;;;;;;;0.20;0.20;;;;;;;;;;4934709;28;20170;-85
2023/05/06 15:50:07;;;;;;;;;;;;;;;;;;;;;
2023/05/06 15:52:43;;;;;;;0.20;0.10;;;;;;;;;;4950934;28;20049;-83
2023/05/06 15:55:13;;;;;;;0.20;0.20;;;;;;;;;;4960913;28;20476;-84
2023/05/06 15:57:44;;;;;;;0.20;0.17;;;;;;;;;;4941887;28;20047;-84
2023/05/06 16:00:14;;;;;;;0.30;0.30;;;;;;;;;;4957752;28;20047;-84
2023/05/06 16:03:05;;;;;;;0.20;0.10;;;;;;;;;;4937705;28;20198;-86
2023/05/06 16:05:35;;;;;;;0.20;0.10;;;;;;;;;;4954103;28;20047;-84
2023/05/06 16:08:01;;;;;;;0.40;0.38;;;;;;;;;;4936969;28;20632;-85
2023/05/06 16:10:35;;;;;;;0.20;0.10;;;;;;;;;;4966079;28;20042;-84
2023/05/06 16:13:16;;;;;;;0.22;0.13;;;;;;;;;;4948054;28;20059;-84
2023/05/06 16:15:48;;;;;;;0.20;0.08;;;;;;;;;;4956706;28;20342;-83
2023/05/06 16:18:14;;;;;;;0.20;0.10;;;;;;;;;;4948484;28;20143;-84
2023/05/06 16:20:40;;;;;;;0.40;0.10;;;;;;;;;;4958162;28;20051;-82
2023/05/06 16:23:06;;;;;;;0.20;0.10;;;;;;;;;;4961341;28;20102;-82
2023/05/06 16:25:33;;;;;;;0.65;0.30;;;;;;;;;;4943593;28;20042;-85
2023/05/06 16:27:59;;;;;;;0.20;0.10;;;;;;;;;;4972941;28;20054;-82
2023/05/06 16:30:25;;;;;;;0.20;0.10;;;;;;;;;;4969501;28;20035;-84
2023/05/06 16:32:51;;;;;;;0.20;0.08;;;;;;;;;;4952566;28;20401;-84
2023/05/06 16:35:17;;;;;;;0.20;0.10;;;;;;;;;;4937346;28;20042;-85
2023/05/06 16:37:49;;;;;;;0.20;0.10;;;;;;;;;;4971428;28;20054;-85
2023/05/06 16:40:17;;;;;;;0.30;0.20;;;;;;;;;;4939222;28;20257;-84
2023/05/06 16:42:43;;;;;;;0.20;0.10;;;;;;;;;;4950063;28;20137;-84
2023/05/06 16:45:12;;;;;;;0.20;0.10;;;;;;;;;;4949787;28;20089;-84
2023/05/06 16:47:41;;;;;;;0.30;0.10;;;;;;;;;;4969125;28;20043;-85
2023/05/06 16:50:07;;;;;;;0.20;0.10;;;;;;;;;;4949948;28;20043;-83
2023/05/06 16:52:33;;;;;;;0.20;0.10;;;;;;;;;;4965794;28;20051;-84
2023/05/06 16:54:59;;;;;;;0.40;0.40;;;;;;;;;;4950974;28;20122;-86
2023/05/06 16:57:25;;;;;;;0.20;0.10;;;;;;;;;;4942419;28;20047;-84
2023/05/06 16:59:54;;;;;;;0.20;0.10;;;;;;;;;;4951356;28;20039;-85
2023/05/06 17:02:25;;;;;;;0.20;0.17;;;;;;;;;;4955628;28;20526;-84
2023/05/06 17:05:04;;;;;;;0.20;0.10;;;;;;;;;;4942548;28;20051;-84
2023/05/06 17:07:31;;;;;;;0.20;0.20;;;;;;;;;;4972745;28;20105;-84
2023/05/06 17:10:08;;;;;;;0.20;0.10;;;;;;;;;;4952583;28;20489;-84
2023/05/06 17:12:40;;;;;;;0.20;0.10;;;;;;;;;;4938408;28;20444;-85
2023/05/06 17:15:27;;;;;;;1.08;0.20;;;;;;;;;;4937192;28;20046;-84
2023/05/06 17:18:01;;;;;;;0.47;0.30;;;;;;;;;;4937961;28;20532;-85
2023/05/06 17:20:27;;;;;;;0.40;0.20;;;;;;;;;;4971533;28;20524;-84
2023/05/06 17:22:56;;;;;;;0.20;0.10;;;;;;;;;;4955837;28;20094;-85
2023/05/06 17:25:22;;;;;;;0.30;0.20;;;;;;;;;;4939781;28;20058;-86
2023/05/06 17:27:48;;;;;;;0.20;0.10;;;;;;;;;;4971780;28;20043;-86
2023/05/06 17:30:14;;;;;;;0.20;0.00;;;;;;;;;;4955785;28;20085;-85
2023/05/06 17:32:54;;;;;;;0.20;0.10;;;;;;;;;;4977778;28;20053;-87
2023/05/06 17:35:20;;;;;;;0.20;0.10;;;;;;;;;;4952108;28;20458;-85
2023/05/06 17:37:49;;;;;;;0.20;0.10;;;;;;;;;;4960754;28;20147;-84
2023/05/06 17:40:15;;;;;;;0.20;0.10;;;;;;;;;;4952403;28;20050;-86